Time;durP1;ratioP1;P1;durP2;ratioP2;P2;SDS_P1;SDS_P2;PMS_P1;PMS_P2;Temp;Humidity;BMP_temperature;BMP_pressure;BME280_temperature;BME280_humidity;BME280_pressure;Samples;Min_cycle;Max_cycle;Signal;HPM_P1;HPM_P2
2024/03/23 00:00:04;;;;;;;32.95;18.33;;;8.40;99.90;;;;;;4951093;28;20042;-76
2024/03/23 00:02:31;;;;;;;38.88;19.17;;;8.40;99.90;;;;;;4940514;28;20118;-76
2024/03/23 00:04:57;;;;;;;37.90;18.80;;;8.40;99.90;;;;;;4962358;28;20027;-76
2024/03/23 00:07:24;;;;;;;31.58;17.10;;;8.30;99.90;;;;;;4959324;28;20036;-76
2024/03/23 00:09:53;;;;;;;39.47;18.67;;;8.40;99.90;;;;;;4967106;28;20062;-77
2024/03/23 00:12:20;;;;;;;35.25;17.75;;;8.40;99.90;;;;;;4970045;28;20466;-76
2024/03/23 00:14:46;;;;;;;33.38;18.63;;;8.40;99.90;;;;;;4970098;28;20046;-76
2024/03/23 00:17:13;;;;;;;27.48;17.02;;;8.40;99.90;;;;;;4969941;28;20367;-76
2024/03/23 00:19:42;;;;;;;37.38;17.45;;;8.30;99.90;;;;;;4954192;28;20070;-75
2024/03/23 00:22:08;;;;;;;32.05;16.15;;;8.30;99.90;;;;;;4969770;28;20039;-76
2024/03/23 00:24:35;;;;;;;27.60;14.25;;;8.30;99.90;;;;;;4964031;28;20058;-76
2024/03/23 00:27:02;;;;;;;28.45;13.13;;;8.30;99.90;;;;;;4968624;28;20034;-76
2024/03/23 00:29:29;;;;;;;23.55;11.57;;;8.20;99.90;;;;;;4970629;28;20482;-76
2024/03/23 00:31:56;;;;;;;25.83;12.90;;;8.20;99.90;;;;;;4970074;28;20046;-76
2024/03/23 00:34:22;;;;;;;23.58;11.00;;;8.20;99.90;;;;;;4966027;28;20032;-76
2024/03/23 00:36:49;;;;;;;18.15;10.43;;;8.10;99.90;;;;;;4952435;28;20024;-76
2024/03/23 00:39:16;;;;;;;16.45;8.80;;;8.10;99.90;;;;;;4918704;29;20513;-76
2024/03/23 00:41:43;;;;;;;24.85;9.10;;;8.10;99.90;;;;;;4934674;29;20094;-75
2024/03/23 00:44:10;;;;;;;17.30;8.15;;;8.00;99.90;;;;;;4953300;28;20101;-75
2024/03/23 00:46:36;;;;;;;19.35;8.35;;;8.00;99.90;;;;;;4946117;28;20485;-76
2024/03/23 00:49:03;;;;;;;13.18;7.53;;;7.90;99.90;;;;;;4971120;28;20034;-76
2024/03/23 00:51:29;;;;;;;26.40;9.48;;;7.90;99.90;;;;;;4971320;28;20423;-76
2024/03/23 00:53:55;;;;;;;21.45;9.60;;;7.90;99.90;;;;;;4969935;28;20292;-76
2024/03/23 00:56:24;;;;;;;23.80;9.32;;;7.90;99.90;;;;;;4969884;28;20115;-76
2024/03/23 00:58:50;;;;;;;23.13;10.10;;;7.90;99.90;;;;;;4969602;28;20077;-76
2024/03/23 01:01:15;;;;;;;23.52;10.05;;;7.80;99.90;;;;;;4971287;28;20401;-76
2024/03/23 01:03:43;;;;;;;25.05;8.55;;;7.80;99.90;;;;;;4959927;28;20030;-76
2024/03/23 01:06:12;;;;;;;20.52;8.32;;;7.80;99.90;;;;;;4985854;28;20402;-76
2024/03/23 01:08:40;;;;;;;25.90;9.20;;;7.80;99.90;;;;;;4961998;28;20030;-76
2024/03/23 01:11:06;;;;;;;33.08;9.52;;;7.80;99.90;;;;;;4973585;28;20145;-76
2024/03/23 01:13:35;;;;;;;25.20;9.02;;;7.80;99.90;;;;;;4989474;28;20110;-76
2024/03/23 01:16:01;;;;;;;19.10;9.90;;;7.80;99.90;;;;;;4974701;28;20066;-76
2024/03/23 01:18:27;;;;;;;22.70;10.90;;;7.80;99.90;;;;;;4966906;28;20492;-76
2024/03/23 01:20:55;;;;;;;27.15;10.95;;;7.70;99.90;;;;;;4981651;28;20043;-75
2024/03/23 01:23:24;;;;;;;32.35;12.27;;;7.70;99.90;;;;;;4962441;28;20510;-76
2024/03/23 01:25:54;;;;;;;18.17;9.23;;;7.60;99.90;;;;;;4955337;28;20027;-75
2024/03/23 01:28:23;;;;;;;23.10;9.68;;;7.60;99.90;;;;;;4955127;28;20025;-76
2024/03/23 01:30:49;;;;;;;20.92;9.73;;;7.60;99.90;;;;;;4953805;28;20106;-76
2024/03/23 01:33:16;;;;;;;25.42;10.07;;;7.60;99.90;;;;;;4965957;28;20106;-76
2024/03/23 01:35:41;;;;;;;23.10;11.35;;;7.60;99.90;;;;;;4973206;28;20089;-76
2024/03/23 01:38:08;;;;;;;23.02;9.48;;;7.60;99.90;;;;;;4974526;28;20038;-76
2024/03/23 01:40:34;;;;;;;22.52;9.20;;;7.60;99.90;;;;;;4974767;28;20015;-76
2024/03/23 01:43:05;;;;;;;16.40;8.30;;;7.50;99.90;;;;;;4973826;28;20027;-75
2024/03/23 01:45:31;;;;;;;;;;;7.40;99.90;;;;;;4973402;28;20047;-76
2024/03/23 01:48:00;;;;;;;17.65;6.70;;;7.40;99.90;;;;;;4988968;28;19940;-75
2024/03/23 01:50:26;;;;;;;18.30;5.95;;;7.40;99.90;;;;;;4973996;28;20022;-76
2024/03/23 01:52:53;;;;;;;17.08;5.93;;;7.40;99.90;;;;;;4972516;28;20027;-76
2024/03/23 01:55:19;;;;;;;12.82;5.30;;;7.30;99.90;;;;;;4974305;28;20031;-76
2024/03/23 01:57:44;;;;;;;14.02;5.38;;;7.30;99.90;;;;;;4972398;28;20027;-76
2024/03/23 02:00:12;;;;;;;16.73;6.60;;;7.30;99.90;;;;;;4973867;28;20023;-76
2024/03/23 02:02:44;;;;;;;12.60;6.63;;;7.30;99.90;;;;;;4973575;28;20018;-76
2024/03/23 02:05:14;;;;;;;16.65;6.10;;;7.30;99.90;;;;;;4972522;28;20059;-75
2024/03/23 02:07:41;;;;;;;16.90;6.80;;;7.20;99.90;;;;;;4967461;28;20031;-76
2024/03/23 02:10:09;;;;;;;18.42;6.03;;;7.30;99.90;;;;;;4964482;28;20054;-76
2024/03/23 02:12:35;;;;;;;13.70;5.53;;;7.20;99.90;;;;;;4972402;28;20019;-76
2024/03/23 02:15:01;;;;;;;17.23;6.40;;;7.20;99.90;;;;;;4973588;28;20027;-76
2024/03/23 02:17:31;;;;;;;14.68;4.85;;;7.20;99.90;;;;;;4988578;28;20041;-76
2024/03/23 02:20:06;;;;;;;9.85;4.82;;;7.20;99.90;;;;;;4972061;28;20038;-76
2024/03/23 02:22:39;;;;;;;12.98;4.75;;;7.20;99.90;;;;;;4973359;28;20019;-76
2024/03/23 02:25:06;;;;;;;15.05;4.78;;;7.20;99.90;;;;;;4970483;28;20033;-76
2024/03/23 02:27:33;;;;;;;14.55;5.53;;;7.20;99.90;;;;;;4953183;28;20027;-76
2024/03/23 02:29:59;;;;;;;12.80;6.07;;;7.20;99.90;;;;;;4954160;28;20286;-76
2024/03/23 02:32:25;;;;;;;12.00;4.85;;;7.10;99.90;;;;;;4952047;28;20041;-76
2024/03/23 02:34:51;;;;;;;16.20;5.38;;;7.10;99.90;;;;;;4981108;28;20027;-76
2024/03/23 02:37:17;;;;;;;16.65;6.10;;;7.10;99.90;;;;;;4979856;28;20019;-76
2024/03/23 02:39:42;;;;;;;19.13;6.57;;;7.10;99.90;;;;;;4973596;28;20023;-76
2024/03/23 02:42:08;;;;;;;20.60;5.88;;;7.10;99.90;;;;;;4968527;28;20062;-76
2024/03/23 02:44:34;;;;;;;15.93;6.15;;;7.10;99.90;;;;;;4987822;28;20070;-76
2024/03/23 02:47:00;;;;;;;14.18;6.03;;;7.10;99.90;;;;;;4971779;28;20524;-76
2024/03/23 02:49:29;;;;;;;14.48;5.60;;;7.10;99.90;;;;;;4972853;28;20085;-76
2024/03/23 02:52:01;;;;;;;15.13;5.32;;;7.10;99.90;;;;;;4971314;28;20411;-76
2024/03/23 02:54:27;;;;;;;13.43;4.53;;;7.10;99.90;;;;;;4953268;28;20053;-75
2024/03/23 02:56:55;;;;;;;11.88;5.03;;;7.10;99.90;;;;;;4953479;28;20035;-76
2024/03/23 02:59:21;;;;;;;18.65;5.03;;;7.10;99.90;;;;;;4963788;28;20018;-76
2024/03/23 03:01:47;;;;;;;14.93;4.88;;;7.10;99.90;;;;;;4970999;28;20379;-76
2024/03/23 03:04:13;;;;;;;13.25;4.90;;;7.10;99.90;;;;;;4971537;28;20026;-76
2024/03/23 03:06:40;;;;;;;15.35;5.15;;;7.00;99.90;;;;;;4971422;28;20555;-76
2024/03/23 03:09:06;;;;;;;9.60;4.53;;;7.10;99.90;;;;;;4963844;28;20027;-76
2024/03/23 03:11:32;;;;;;;10.73;4.57;;;7.00;99.90;;;;;;4968546;28;20027;-76
2024/03/23 03:14:00;;;;;;;16.08;4.85;;;6.90;99.90;;;;;;4962141;28;20054;-76
2024/03/23 03:16:26;;;;;;;17.85;4.68;;;7.00;99.90;;;;;;4987968;28;20404;-76
2024/03/23 03:18:52;;;;;;;15.73;5.30;;;6.90;99.90;;;;;;4971117;28;20027;-76
2024/03/23 03:21:19;;;;;;;14.93;5.15;;;7.00;99.90;;;;;;4972313;28;20027;-76
2024/03/23 03:23:44;;;;;;;14.27;4.88;;;6.90;99.90;;;;;;4986805;28;20027;-75
2024/03/23 03:26:10;;;;;;;21.42;5.70;;;6.80;99.90;;;;;;4972209;28;20026;-76
2024/03/23 03:28:39;;;;;;;14.57;4.65;;;6.90;99.90;;;;;;4970847;28;20130;-76
2024/03/23 03:31:05;;;;;;;10.68;4.78;;;6.80;99.90;;;;;;4969599;28;20030;-77
2024/03/23 03:33:34;;;;;;;13.73;5.13;;;6.80;99.90;;;;;;4965102;28;20103;-77
2024/03/23 03:36:02;;;;;;;12.05;5.13;;;6.80;99.90;;;;;;4970953;28;20027;-77
2024/03/23 03:38:31;;;;;;;18.50;5.97;;;6.90;99.90;;;;;;4972007;28;20596;-76
2024/03/23 03:40:58;;;;;;;13.98;5.18;;;6.80;99.90;;;;;;4986715;28;20018;-76
2024/03/23 03:43:24;;;;;;;18.42;5.82;;;6.80;99.90;;;;;;4983269;28;20027;-76
2024/03/23 03:45:53;;;;;;;14.10;5.07;;;6.80;99.90;;;;;;4959852;28;20034;-76
2024/03/23 03:48:19;;;;;;;14.18;5.15;;;6.80;99.90;;;;;;4971812;28;20097;-76
2024/03/23 03:50:45;;;;;;;16.30;5.93;;;6.80;99.90;;;;;;4970742;28;20114;-76
2024/03/23 03:53:11;;;;;;;13.73;5.75;;;6.70;99.90;;;;;;4969911;28;20031;-76
2024/03/23 03:55:42;;;;;;;17.48;5.70;;;6.80;99.90;;;;;;4978764;28;20082;-76
2024/03/23 03:58:08;;;;;;;18.08;6.93;;;6.80;99.90;;;;;;4968837;28;20492;-76
2024/03/23 04:00:34;;;;;;;24.52;7.05;;;6.80;99.90;;;;;;4963170;28;20026;-76
2024/03/23 04:03:00;;;;;;;24.90;7.05;;;6.70;99.90;;;;;;4969970;28;20072;-76
2024/03/23 04:05:31;;;;;;;13.02;5.90;;;6.70;99.90;;;;;;4978651;28;20049;-76
2024/03/23 04:07:57;;;;;;;14.07;6.97;;;6.70;99.90;;;;;;4972294;28;20470;-76
2024/03/23 04:10:28;;;;;;;18.38;6.70;;;6.70;99.90;;;;;;4970665;28;20520;-76
2024/03/23 04:12:54;;;;;;;11.63;6.50;;;6.70;99.90;;;;;;4970562;28;20033;-76
2024/03/23 04:15:22;;;;;;;19.27;6.97;;;6.80;99.90;;;;;;4971477;28;20031;-76
2024/03/23 04:17:51;;;;;;;20.42;7.10;;;6.80;99.90;;;;;;4970277;28;20081;-76
2024/03/23 04:20:16;;;;;;;23.02;8.05;;;6.80;99.90;;;;;;4970027;28;20477;-76
2024/03/23 04:22:43;;;;;;;21.67;7.65;;;6.80;99.90;;;;;;4971184;28;20030;-76
2024/03/23 04:25:12;;;;;;;17.02;7.28;;;6.80;99.90;;;;;;4970004;28;20027;-76
2024/03/23 04:27:38;;;;;;;28.08;8.98;;;6.80;99.90;;;;;;4971288;28;20054;-76
2024/03/23 04:30:10;;;;;;;24.63;7.63;;;6.80;99.90;;;;;;4969812;28;20418;-76
2024/03/23 04:32:37;;;;;;;20.98;7.40;;;6.80;99.90;;;;;;4970870;28;20023;-76
2024/03/23 04:35:05;;;;;;;21.58;7.85;;;6.80;99.90;;;;;;4986123;28;20661;-76
2024/03/23 04:37:34;;;;;;;19.23;8.07;;;6.80;99.90;;;;;;4955846;28;20032;-75
2024/03/23 04:40:01;;;;;;;19.58;7.95;;;6.80;99.90;;;;;;4954914;28;20078;-75
2024/03/23 04:42:27;;;;;;;20.30;7.93;;;6.70;99.90;;;;;;4978688;28;20054;-76
2024/03/23 04:44:53;;;;;;;17.27;7.70;;;6.70;99.90;;;;;;4954629;28;20110;-76
2024/03/23 04:47:18;;;;;;;20.15;10.40;;;6.70;99.90;;;;;;4963857;28;20496;-76
2024/03/23 04:49:44;;;;;;;24.42;8.32;;;6.70;99.90;;;;;;4955727;28;20031;-76
2024/03/23 04:52:10;;;;;;;25.15;8.77;;;6.70;99.90;;;;;;4978127;28;20019;-76
2024/03/23 04:54:36;;;;;;;25.23;8.75;;;6.70;99.90;;;;;;4967195;28;20030;-76
2024/03/23 04:57:02;;;;;;;23.55;7.60;;;6.70;99.90;;;;;;4974889;28;20031;-76
2024/03/23 04:59:27;;;;;;;23.70;8.93;;;6.60;99.90;;;;;;4973706;28;20029;-76
2024/03/23 05:01:53;;;;;;;20.73;6.80;;;6.70;99.90;;;;;;4974558;28;20046;-76
2024/03/23 05:04:18;;;;;;;23.30;7.22;;;6.70;99.90;;;;;;4972482;28;20030;-76
2024/03/23 05:06:45;;;;;;;19.50;7.03;;;6.70;99.90;;;;;;4955730;28;20049;-76
2024/03/23 05:09:13;;;;;;;19.73;6.18;;;6.70;99.90;;;;;;4955776;28;20495;-76
2024/03/23 05:11:39;;;;;;;18.75;6.88;;;6.60;99.90;;;;;;4954864;28;20110;-76
2024/03/23 05:14:05;;;;;;;20.83;7.50;;;6.60;99.90;;;;;;4954091;28;20031;-76
2024/03/23 05:16:31;;;;;;;30.02;6.88;;;6.60;99.90;;;;;;4955916;28;20058;-75
2024/03/23 05:18:57;;;;;;;13.65;5.05;;;6.60;99.90;;;;;;4967512;28;20033;-76
2024/03/23 05:21:22;;;;;;;15.13;5.63;;;6.60;99.90;;;;;;4984970;28;20482;-76
2024/03/23 05:23:48;;;;;;;17.65;6.68;;;6.60;99.90;;;;;;4986302;28;20106;-76
2024/03/23 05:26:14;;;;;;;20.50;6.15;;;6.60;99.90;;;;;;4964655;28;20030;-76
2024/03/23 05:28:40;;;;;;;11.73;5.32;;;6.60;99.90;;;;;;4959226;28;20023;-76
2024/03/23 05:31:06;;;;;;;12.18;4.80;;;6.60;99.90;;;;;;4970067;28;20437;-76
2024/03/23 05:33:32;;;;;;;17.67;5.95;;;6.60;99.90;;;;;;4971520;28;20023;-76
2024/03/23 05:36:00;;;;;;;17.02;6.40;;;6.60;99.90;;;;;;4977957;28;20058;-77
2024/03/23 05:38:26;;;;;;;20.40;6.30;;;6.60;99.90;;;;;;4960388;28;20568;-76
2024/03/23 05:40:58;;;;;;;16.80;5.55;;;6.60;99.90;;;;;;4969700;28;20024;-76
2024/03/23 05:43:25;;;;;;;18.80;4.85;;;6.60;99.90;;;;;;4970306;28;20027;-76
2024/03/23 05:45:58;;;;;;;23.25;5.03;;;6.60;99.90;;;;;;4972907;28;20026;-75
2024/03/23 05:48:26;;;;;;;11.77;4.55;;;6.50;99.90;;;;;;4972852;28;20030;-76
2024/03/23 05:50:52;;;;;;;15.60;5.05;;;6.50;99.90;;;;;;4970569;28;20169;-76
2024/03/23 05:53:18;;;;;;;14.32;4.68;;;6.50;99.90;;;;;;4966618;28;20385;-76
2024/03/23 05:55:44;;;;;;;16.40;4.25;;;6.40;99.90;;;;;;4965643;28;20024;-76
2024/03/23 05:58:10;;;;;;;15.95;4.60;;;6.40;99.90;;;;;;4966435;28;20034;-76
2024/03/23 06:00:36;;;;;;;18.95;4.53;;;6.40;99.90;;;;;;4965821;28;20033;-75
2024/03/23 06:03:04;;;;;;;20.15;4.75;;;6.30;99.90;;;;;;4964793;28;20043;-76
2024/03/23 06:05:32;;;;;;;17.20;4.70;;;6.30;99.90;;;;;;4964519;28;20046;-76
2024/03/23 06:08:01;;;;;;;22.70;5.05;;;6.30;99.90;;;;;;4988403;28;20042;-76
2024/03/23 06:10:29;;;;;;;19.02;6.18;;;6.20;99.90;;;;;;4966664;28;20049;-75
2024/03/23 06:12:55;;;;;;;12.40;4.07;;;6.20;99.90;;;;;;4966843;28;20023;-75
2024/03/23 06:15:24;;;;;;;10.20;3.30;;;6.10;99.90;;;;;;4966033;28;20034;-76
2024/03/23 06:17:50;;;;;;;15.07;3.53;;;6.00;99.90;;;;;;4965989;28;20038;-75
2024/03/23 06:20:18;;;;;;;8.18;2.42;;;5.90;99.90;;;;;;4965675;28;20069;-76
2024/03/23 06:22:44;;;;;;;7.65;2.90;;;5.90;99.90;;;;;;4979969;28;20015;-75
2024/03/23 06:25:12;;;;;;;15.15;3.25;;;5.80;99.90;;;;;;4966279;28;20495;-76
2024/03/23 06:27:38;;;;;;;15.93;2.97;;;5.80;99.90;;;;;;4966225;28;20033;-76
2024/03/23 06:30:05;;;;;;;14.55;2.80;;;5.80;99.90;;;;;;4965746;28;20027;-76
2024/03/23 06:32:37;;;;;;;14.63;3.65;;;5.70;99.90;;;;;;4967678;28;20077;-75
2024/03/23 06:35:08;;;;;;;12.77;4.20;;;5.80;99.90;;;;;;4963057;28;20034;-76
2024/03/23 06:37:34;;;;;;;12.40;3.25;;;5.80;99.90;;;;;;4967477;28;20030;-76
2024/03/23 06:39:59;;;;;;;14.85;3.30;;;5.80;99.90;;;;;;4966862;28;20019;-76
2024/03/23 06:42:25;;;;;;;9.00;2.92;;;5.80;99.90;;;;;;4964688;28;20533;-76
2024/03/23 06:44:51;;;;;;;9.95;2.90;;;5.80;99.90;;;;;;4954134;28;20078;-76
2024/03/23 06:47:17;;;;;;;6.70;3.08;;;5.80;99.90;;;;;;4968033;28;20023;-76
2024/03/23 06:49:43;;;;;;;10.25;3.00;;;5.90;99.90;;;;;;4956921;28;20023;-76
2024/03/23 06:52:08;;;;;;;14.98;3.35;;;5.90;99.90;;;;;;4962497;28;20114;-75
2024/03/23 06:54:34;;;;;;;11.38;3.42;;;5.90;99.90;;;;;;4984844;28;20022;-76
2024/03/23 06:57:00;;;;;;;10.85;3.10;;;6.00;99.90;;;;;;4958767;28;20023;-75
2024/03/23 06:59:28;;;;;;;13.77;4.05;;;6.00;99.90;;;;;;4964561;28;20046;-76
2024/03/23 07:01:53;;;;;;;11.40;3.00;;;6.00;99.90;;;;;;4983305;28;20029;-75
2024/03/23 07:04:21;;;;;;;15.05;3.22;;;6.00;99.90;;;;;;4955244;28;20089;-76
2024/03/23 07:06:51;;;;;;;15.27;2.92;;;6.00;99.90;;;;;;4964314;28;20030;-75
2024/03/23 07:09:17;;;;;;;12.52;2.45;;;6.00;99.90;;;;;;4963193;28;20086;-76
2024/03/23 07:11:43;;;;;;;13.18;2.85;;;6.10;99.90;;;;;;4964089;28;20399;-76
2024/03/23 07:14:09;;;;;;;10.95;3.33;;;6.10;99.90;;;;;;4962897;28;20564;-76
2024/03/23 07:16:34;;;;;;;15.88;2.90;;;6.10;99.90;;;;;;4961919;28;20031;-76
2024/03/23 07:19:00;;;;;;;16.13;3.00;;;6.10;99.90;;;;;;4957306;28;20050;-75
2024/03/23 07:21:26;;;;;;;7.60;2.75;;;6.10;99.90;;;;;;4950890;28;20035;-76
2024/03/23 07:23:51;;;;;;;7.30;2.67;;;6.10;99.90;;;;;;4952742;28;20102;-76
2024/03/23 07:26:18;;;;;;;11.23;3.22;;;6.20;99.90;;;;;;4984718;28;20026;-75
2024/03/23 07:28:46;;;;;;;8.98;2.95;;;6.20;99.90;;;;;;4963612;28;20023;-75
2024/03/23 07:31:14;;;;;;;15.85;3.58;;;6.30;99.90;;;;;;4969597;28;20030;-76
2024/03/23 07:33:47;;;;;;;10.27;3.28;;;6.40;99.90;;;;;;4967045;28;20135;-76
2024/03/23 07:36:15;;;;;;;17.10;3.42;;;6.40;99.90;;;;;;4953276;28;20372;-76
2024/03/23 07:38:47;;;;;;;14.60;3.00;;;6.50;99.90;;;;;;4986737;28;20027;-75
2024/03/23 07:41:17;;;;;;;11.57;3.42;;;6.60;99.90;;;;;;4971379;28;20063;-76
2024/03/23 07:43:43;;;;;;;13.18;3.00;;;6.70;99.90;;;;;;4965860;28;20054;-75
2024/03/23 07:46:09;;;;;;;9.13;2.50;;;6.80;99.90;;;;;;4966724;28;20102;-76
2024/03/23 07:48:39;;;;;;;8.50;2.55;;;6.80;99.90;;;;;;4952784;28;20154;-76
2024/03/23 07:51:12;;;;;;;10.45;3.42;;;7.00;99.90;;;;;;4964762;28;20019;-76
2024/03/23 07:53:38;;;;;;;12.07;3.17;;;7.00;99.90;;;;;;4969181;28;20034;-76
2024/03/23 07:56:10;;;;;;;12.73;3.83;;;7.10;99.90;;;;;;4986802;28;20038;-76
2024/03/23 07:58:37;;;;;;;6.93;2.58;;;7.20;99.90;;;;;;4966382;28;20030;-76
2024/03/23 08:01:09;;;;;;;8.43;3.25;;;7.30;99.90;;;;;;4964550;28;20058;-76
2024/03/23 08:03:36;;;;;;;11.18;3.42;;;7.40;99.90;;;;;;4969770;28;20041;-76
2024/03/23 08:06:13;;;;;;;12.95;4.25;;;7.40;99.90;;;;;;4970491;28;20023;-77
2024/03/23 08:08:40;;;;;;;12.95;3.50;;;7.30;99.90;;;;;;4971605;28;20065;-77
2024/03/23 08:11:07;;;;;;;10.45;3.35;;;7.30;99.90;;;;;;4970810;28;20030;-76
2024/03/23 08:13:34;;;;;;;12.73;3.80;;;7.40;99.90;;;;;;4967784;28;20501;-77
2024/03/23 08:16:01;;;;;;;14.13;4.40;;;7.40;99.90;;;;;;4963565;28;20031;-76
2024/03/23 08:18:27;;;;;;;21.65;4.13;;;7.40;99.90;;;;;;4963744;28;20031;-75
2024/03/23 08:21:00;;;;;;;13.93;3.45;;;7.30;99.90;;;;;;4964110;28;20026;-76
2024/03/23 08:23:28;;;;;;;9.50;3.00;;;7.30;99.90;;;;;;4968909;28;20037;-76
2024/03/23 08:26:05;;;;;;;15.85;2.80;;;7.20;99.90;;;;;;4969921;28;20042;-76
2024/03/23 08:28:33;;;;;;;10.40;2.72;;;7.20;99.90;;;;;;4959140;28;20101;-77
2024/03/23 08:31:06;;;;;;;14.07;3.30;;;7.20;99.90;;;;;;4952328;28;20032;-78
2024/03/23 08:33:32;;;;;;;13.68;2.65;;;7.10;99.90;;;;;;4953111;28;20045;-78
2024/03/23 08:36:03;;;;;;;7.13;2.47;;;7.10;99.90;;;;;;4971758;28;20475;-78
2024/03/23 08:38:29;;;;;;;14.05;3.10;;;7.10;99.90;;;;;;4950518;28;20039;-77
2024/03/23 08:41:02;;;;;;;11.30;2.88;;;7.10;99.90;;;;;;4950747;28;20023;-76
2024/03/23 08:43:29;;;;;;;11.93;2.95;;;7.00;99.90;;;;;;4969781;28;20037;-76
2024/03/23 08:46:15;;;;;;;11.77;2.65;;;7.10;99.90;;;;;;4961933;28;20401;-76
2024/03/23 08:48:46;;;;;;;10.50;1.92;;;7.10;99.90;;;;;;4963298;28;20038;-76
2024/03/23 08:51:14;;;;;;;12.63;2.58;;;7.20;99.90;;;;;;4970412;28;20097;-76
2024/03/23 08:53:40;;;;;;;9.95;2.40;;;7.30;99.90;;;;;;4969483;28;20489;-76
2024/03/23 08:56:07;;;;;;;12.32;2.70;;;7.30;99.90;;;;;;4969921;28;20031;-76
2024/03/23 08:58:34;;;;;;;13.35;2.65;;;7.50;99.90;;;;;;4969540;28;20478;-76
2024/03/23 09:01:11;;;;;;;6.70;2.63;;;7.50;99.90;;;;;;4969730;28;20027;-76
2024/03/23 09:03:37;;;;;;;11.98;2.55;;;7.60;99.90;;;;;;4970700;28;20479;-76
2024/03/23 09:06:07;;;;;;;13.57;2.63;;;7.70;99.90;;;;;;4985935;28;20023;-76
2024/03/23 09:08:34;;;;;;;14.63;3.63;;;7.80;99.90;;;;;;4969586;28;20386;-77
2024/03/23 09:11:05;;;;;;;12.80;2.75;;;7.90;99.90;;;;;;4970699;28;20027;-76
2024/03/23 09:13:32;;;;;;;12.00;2.92;;;8.00;99.90;;;;;;4969186;28;20030;-76
2024/03/23 09:15:58;;;;;;;10.50;3.38;;;8.10;99.90;;;;;;4970760;28;20139;-76
2024/03/23 09:18:24;;;;;;;16.48;3.83;;;8.10;99.90;;;;;;4984076;28;20118;-76
2024/03/23 09:20:53;;;;;;;9.77;3.25;;;8.30;99.90;;;;;;4966412;28;20082;-76
2024/03/23 09:23:20;;;;;;;16.60;3.60;;;8.40;99.90;;;;;;4955128;28;20034;-76
2024/03/23 09:25:45;;;;;;;18.08;4.18;;;8.40;99.90;;;;;;4969888;28;20034;-76
2024/03/23 09:28:11;;;;;;;15.55;4.00;;;8.40;99.90;;;;;;4969767;28;20125;-76
2024/03/23 09:30:43;;;;;;;15.85;4.47;;;8.50;99.90;;;;;;4973032;28;20023;-76
2024/03/23 09:33:10;;;;;;;19.52;5.80;;;8.50;99.90;;;;;;4972545;28;20031;-76
2024/03/23 09:35:39;;;;;;;16.52;5.72;;;8.80;99.90;;;;;;4974226;28;20031;-76
2024/03/23 09:38:07;;;;;;;20.02;6.40;;;9.40;99.90;;;;;;4965768;28;20726;-76
2024/03/23 09:40:32;;;;;;;25.65;5.72;;;9.70;99.90;;;;;;4953617;28;20379;-76
2024/03/23 09:42:58;;;;;;;22.58;5.57;;;9.70;99.90;;;;;;4954686;28;20090;-77
2024/03/23 09:45:28;;;;;;;13.73;4.93;;;9.70;99.90;;;;;;4954793;28;20463;-76
2024/03/23 09:47:55;;;;;;;15.45;6.80;;;9.80;99.90;;;;;;4953689;28;20039;-76
2024/03/23 09:50:21;;;;;;;26.05;6.25;;;9.90;99.90;;;;;;4971963;28;20023;-76
2024/03/23 09:52:50;;;;;;;23.35;5.68;;;9.90;99.90;;;;;;4969202;28;20043;-76
2024/03/23 09:55:19;;;;;;;22.55;6.45;;;9.90;99.90;;;;;;4985630;28;20026;-76
2024/03/23 09:57:44;;;;;;;19.70;5.93;;;10.00;99.90;;;;;;4966750;28;20035;-76
2024/03/23 10:00:13;;;;;;;21.15;5.72;;;9.90;99.90;;;;;;4973788;28;20385;-76
2024/03/23 10:02:39;;;;;;;22.63;6.25;;;9.80;99.90;;;;;;4973620;28;20031;-76
2024/03/23 10:05:19;;;;;;;23.92;6.32;;;9.70;99.90;;;;;;4974050;28;20390;-76
2024/03/23 10:07:45;;;;;;;17.08;5.30;;;9.70;99.90;;;;;;4988801;28;20050;-76
2024/03/23 10:10:11;;;;;;;18.85;6.55;;;9.70;99.90;;;;;;4973682;28;20061;-76
2024/03/23 10:12:47;;;;;;;23.02;6.03;;;9.60;99.90;;;;;;4970910;28;20031;-76
2024/03/23 10:15:25;;;;;;;23.40;6.18;;;9.80;99.90;;;;;;4973738;28;20449;-76
2024/03/23 10:17:52;;;;;;;16.70;5.63;;;9.90;99.90;;;;;;4971908;28;20035;-76
2024/03/23 10:20:22;;;;;;;20.58;5.30;;;9.90;99.90;;;;;;4972431;28;20051;-76
2024/03/23 10:22:51;;;;;;;20.17;5.60;;;9.90;99.90;;;;;;4974805;28;20014;-75
2024/03/23 10:25:18;;;;;;;22.33;5.93;;;10.10;99.90;;;;;;4973524;28;20122;-76
2024/03/23 10:27:43;;;;;;;28.48;6.00;;;10.10;99.90;;;;;;4972234;28;20030;-76
2024/03/23 10:30:09;;;;;;;20.70;5.22;;;10.20;99.90;;;;;;4973310;28;20030;-76
2024/03/23 10:32:35;;;;;;;19.55;5.55;;;10.40;99.90;;;;;;4972753;28;20030;-76
2024/03/23 10:35:23;;;;;;;25.17;6.05;;;11.20;99.90;;;;;;4972426;28;20077;-75
2024/03/23 10:37:50;;;;;;;20.23;6.15;;;11.90;99.90;;;;;;4971952;28;20082;-75
2024/03/23 10:40:17;;;;;;;26.15;5.90;;;12.20;99.90;;;;;;4973142;28;20105;-75
2024/03/23 10:42:44;;;;;;;13.43;4.78;;;12.50;99.90;;;;;;4971484;28;20027;-74
2024/03/23 10:45:10;;;;;;;15.70;4.80;;;12.80;99.90;;;;;;4987974;28;20114;-76
2024/03/23 10:47:37;;;;;;;13.25;5.22;;;13.60;99.90;;;;;;4969144;28;20401;-76
2024/03/23 10:50:06;;;;;;;14.38;5.07;;;14.60;99.90;;;;;;4979532;28;20030;-76
2024/03/23 10:52:36;;;;;;;12.15;5.03;;;16.40;96.00;;;;;;4967867;28;20106;-76
2024/03/23 10:55:11;;;;;;;13.63;5.10;;;16.70;92.00;;;;;;4974678;28;20121;-76
2024/03/23 10:57:49;;;;;;;14.35;5.13;;;16.30;92.10;;;;;;4970210;28;20086;-75
2024/03/23 11:00:16;;;;;;;16.27;4.95;;;16.70;89.00;;;;;;4953896;28;20386;-76
2024/03/23 11:02:41;;;;;;;11.20;3.90;;;17.50;88.90;;;;;;4953502;28;20024;-76
2024/03/23 11:05:26;;;;;;;14.60;4.43;;;18.40;83.30;;;;;;4960951;28;20544;-76
2024/03/23 11:07:52;;;;;;;13.43;4.38;;;19.30;79.90;;;;;;4958956;28;20121;-76
2024/03/23 11:10:29;;;;;;;14.52;4.30;;;20.10;79.60;;;;;;4957248;28;20363;-76
2024/03/23 11:12:56;;;;;;;12.45;4.65;;;19.20;80.70;;;;;;4952314;28;20109;-77
2024/03/23 11:15:22;;;;;;;10.13;3.33;;;17.50;78.10;;;;;;4962427;28;20023;-75
2024/03/23 11:18:05;;;;;;;7.47;2.78;;;16.00;83.40;;;;;;4971266;28;20082;-75
2024/03/23 11:20:35;;;;;;;9.90;2.42;;;15.50;86.00;;;;;;4969406;28;20110;-76
2024/03/23 11:23:01;;;;;;;8.80;3.38;;;15.70;82.90;;;;;;4966649;28;20034;-76
2024/03/23 11:25:27;;;;;;;8.48;2.60;;;16.50;79.90;;;;;;4971409;28;20461;-76
2024/03/23 11:27:57;;;;;;;7.40;3.15;;;17.20;80.60;;;;;;4972619;28;20102;-76
2024/03/23 11:30:24;;;;;;;7.47;2.50;;;18.10;79.00;;;;;;4978799;28;20518;-76
2024/03/23 11:32:58;;;;;;;10.80;3.58;;;18.30;75.70;;;;;;4952728;28;20134;-73
2024/03/23 11:35:42;;;;;;;11.35;3.50;;;17.40;78.60;;;;;;4951736;28;20028;-75
2024/03/23 11:38:35;;;;;;;8.23;2.90;;;15.60;81.60;;;;;;4959623;28;20030;-75
2024/03/23 11:41:03;;;;;;;8.93;3.00;;;15.10;90.00;;;;;;4969359;28;20031;-75
2024/03/23 11:43:28;;;;;;;6.38;2.30;;;16.20;87.80;;;;;;4986510;28;20030;-75
2024/03/23 11:45:55;;;;;;;6.95;2.33;;;17.00;89.70;;;;;;4972322;28;20434;-75
2024/03/23 11:48:22;;;;;;;5.97;2.58;;;17.90;83.10;;;;;;4956372;28;20027;-75
2024/03/23 11:50:50;;;;;;;6.22;1.98;;;18.80;83.40;;;;;;4964077;28;20023;-75
2024/03/23 11:53:23;;;;;;;8.05;2.42;;;19.40;79.00;;;;;;4971772;28;20031;-75
2024/03/23 11:55:51;;;;;;;9.20;2.95;;;20.30;74.80;;;;;;4970724;28;20027;-76
2024/03/23 11:58:18;;;;;;;8.25;2.92;;;21.10;74.10;;;;;;4970900;28;20030;-75
2024/03/23 12:01:04;;;;;;;7.93;2.95;;;21.30;75.00;;;;;;4962762;28;20046;-76
2024/03/23 12:03:33;;;;;;;9.15;2.40;;;21.60;69.50;;;;;;4954071;28;20019;-75
2024/03/23 12:06:01;;;;;;;7.00;2.00;;;19.80;74.00;;;;;;4952521;28;20020;-75
2024/03/23 12:08:32;;;;;;;5.05;1.60;;;16.90;79.80;;;;;;4951425;28;20027;-75
2024/03/23 12:11:11;;;;;;;4.25;2.10;;;14.60;85.60;;;;;;4980836;28;20015;-74
2024/03/23 12:13:37;;;;;;;4.55;1.65;;;13.00;90.80;;;;;;4971638;28;20099;-75
2024/03/23 12:16:16;;;;;;;6.18;1.58;;;12.00;94.70;;;;;;4971943;28;20098;-75
2024/03/23 12:18:43;;;;;;;6.68;1.90;;;11.80;97.90;;;;;;4967521;28;20035;-75
2024/03/23 12:21:09;;;;;;;5.90;1.67;;;11.20;99.90;;;;;;4953158;28;20016;-75
2024/03/23 12:23:46;;;;;;;3.03;2.00;;;10.60;99.90;;;;;;4959050;28;20033;-76
2024/03/23 12:26:12;;;;;;;4.45;1.67;;;10.30;99.90;;;;;;4982110;28;20108;-75
2024/03/23 12:28:39;;;;;;;5.50;1.92;;;10.20;99.90;;;;;;4986353;28;20023;-76
2024/03/23 12:31:05;;;;;;;5.70;1.60;;;10.80;99.90;;;;;;4986293;28;20030;-76
2024/03/23 12:33:31;;;;;;;5.68;1.90;;;11.20;99.90;;;;;;4969659;28;20023;-76
2024/03/23 12:35:57;;;;;;;8.52;2.60;;;11.80;99.90;;;;;;4971412;28;20031;-75
2024/03/23 12:38:22;;;;;;;5.20;2.00;;;12.10;99.90;;;;;;4971388;28;20023;-76
2024/03/23 12:40:51;;;;;;;5.45;1.67;;;12.20;99.90;;;;;;4971344;28;20034;-75
2024/03/23 12:43:17;;;;;;;3.55;1.52;;;12.00;99.90;;;;;;4969981;28;20077;-75
2024/03/23 12:45:58;;;;;;;7.50;1.40;;;11.40;99.90;;;;;;4971364;28;20027;-75
2024/03/23 12:48:26;;;;;;;6.15;1.80;;;11.10;99.90;;;;;;4961674;28;20023;-75